Time;durP1;ratioP1;P1;durP2;ratioP2;P2;SDS_P1;SDS_P2;PMS_P1;PMS_P2;Temp;Humidity;BMP_temperature;BMP_pressure;BME280_temperature;BME280_humidity;BME280_pressure;Samples;Min_cycle;Max_cycle;Signal;HPM_P1;HPM_P2
2021/06/03 00:02:12;;;;;;;5.30;4.67;;;;;;;12.79;72.08;101460.25;5043572;28;20280;-71
2021/06/03 00:04:39;;;;;;;6.40;4.53;;;;;;;12.73;72.84;101464.75;5043063;28;20853;-71
2021/06/03 00:07:05;;;;;;;6.20;4.87;;;;;;;12.67;72.79;101461.38;5042549;28;20219;-71
2021/06/03 00:09:32;;;;;;;6.47;4.57;;;;;;;12.56;73.65;101463.38;5037415;28;20201;-71
2021/06/03 00:11:59;;;;;;;5.43;4.23;;;;;;;12.45;73.73;101455.75;5037961;28;20281;-71
2021/06/03 00:14:27;;;;;;;6.37;4.57;;;;;;;12.39;74.40;101455.88;5036349;28;20203;-71
2021/06/03 00:16:54;;;;;;;6.27;4.63;;;;;;;12.34;76.12;101452.47;5037897;28;20192;-71
2021/06/03 00:19:20;;;;;;;7.17;4.60;;;;;;;12.27;76.11;101450.88;5013405;28;20188;-71
2021/06/03 00:21:46;;;;;;;5.80;5.10;;;;;;;12.16;76.47;101453.72;5037258;28;20218;-71
2021/06/03 00:24:13;;;;;;;6.43;5.20;;;;;;;12.12;76.24;101455.53;5037786;28;20567;-71
2021/06/03 00:26:39;;;;;;;7.33;5.23;;;;;;;12.09;76.43;101452.13;5039839;28;20793;-71
2021/06/03 00:29:06;;;;;;;6.33;5.00;;;;;;;12.08;76.33;101451.25;5048279;28;20187;-71
2021/06/03 00:31:34;;;;;;;6.60;4.77;;;;;;;12.10;74.90;101443.38;5046884;28;20199;-71
2021/06/03 00:34:00;;;;;;;7.00;4.83;;;;;;;12.12;74.95;101452.91;5043904;28;20635;-71
2021/06/03 00:36:26;;;;;;;5.80;5.00;;;;;;;12.16;74.38;101455.47;5036162;28;20230;-71
2021/06/03 00:38:52;;;;;;;7.63;4.70;;;;;;;12.17;74.34;101455.44;5033199;28;20208;-71
2021/06/03 00:41:19;;;;;;;6.27;5.30;;;;;;;12.22;73.77;101444.88;5039682;28;20203;-71
2021/06/03 00:43:45;;;;;;;7.50;4.90;;;;;;;12.23;73.43;101454.47;5046917;28;20918;-71
2021/06/03 00:46:11;;;;;;;6.10;4.80;;;;;;;12.22;73.16;101456.19;5042504;28;20653;-71
2021/06/03 00:48:39;;;;;;;7.23;4.70;;;;;;;12.21;73.84;101464.94;5039539;28;20199;-71
2021/06/03 00:51:07;;;;;;;7.07;5.13;;;;;;;12.18;73.31;101461.53;5046335;28;20828;-71
2021/06/03 00:53:35;;;;;;;8.57;5.13;;;;;;;12.15;73.34;101461.59;5044107;28;20223;-71
2021/06/03 00:56:03;;;;;;;6.67;5.13;;;;;;;12.11;73.70;101466.88;5033776;28;20882;-71
2021/06/03 00:58:32;;;;;;;6.93;4.87;;;;;;;12.13;73.84;101466.84;5039854;28;20610;-71
2021/06/03 01:01:00;;;;;;;11.20;5.03;;;;;;;12.10;73.34;101470.38;5044701;28;20198;-71
2021/06/03 01:03:27;;;;;;;5.57;4.60;;;;;;;12.07;73.97;101467.81;5046162;28;20199;-71
2021/06/03 01:06:00;;;;;;;6.80;5.33;;;;;;;12.02;73.89;101466.19;5044641;28;20220;-71
2021/06/03 01:08:30;;;;;;;6.67;5.13;;;;;;;11.97;74.43;101468.88;5037221;28;20208;-71
2021/06/03 01:10:59;;;;;;;6.20;4.93;;;;;;;11.87;76.00;101468.16;5042678;28;20196;-71
2021/06/03 01:13:40;;;;;;;6.70;4.70;;;;;;;11.80;77.07;101469.16;5028779;28;20246;-71
2021/06/03 01:16:08;;;;;;;6.80;4.97;;;;;;;11.72;75.75;101469.28;5046092;28;20227;-71
2021/06/03 01:18:36;;;;;;;6.57;4.87;;;;;;;11.66;77.53;101466.81;5038413;28;20222;-71
2021/06/03 01:21:07;;;;;;;7.50;5.33;;;;;;;11.61;78.11;101470.34;5031343;28;20664;-71
2021/06/03 01:23:39;;;;;;;6.20;4.80;;;;;;;11.60;80.59;101456.44;5046236;28;20787;-71
2021/06/03 01:26:11;;;;;;;6.00;5.27;;;;;;;11.45;79.13;101465.41;5036838;28;20230;-71
2021/06/03 01:28:38;;;;;;;6.93;5.40;;;;;;;11.39;78.74;101468.09;5042844;28;20217;-71
2021/06/03 01:31:04;;;;;;;6.37;5.20;;;;;;;11.37;80.38;101470.75;5044636;28;20191;-71
2021/06/03 01:33:36;;;;;;;5.67;4.97;;;;;;;11.33;79.61;101468.22;5041756;28;20195;-71
2021/06/03 01:36:06;;;;;;;7.40;5.30;;;;;;;11.25;79.01;101470.94;5038437;28;20215;-71
2021/06/03 01:38:36;;;;;;;6.07;5.40;;;;;;;11.24;78.58;101468.34;5037837;28;20884;-71
2021/06/03 01:41:04;;;;;;;7.33;5.10;;;;;;;11.21;78.61;101468.41;5046224;28;20226;-71
2021/06/03 01:43:37;;;;;;;6.77;4.93;;;;;;;11.15;79.62;101469.34;5039512;28;20212;-71
2021/06/03 01:46:04;;;;;;;8.40;4.97;;;;;;;11.12;80.84;101466.81;5042491;28;20638;-71
2021/06/03 01:48:31;;;;;;;10.03;5.80;;;;;;;11.03;80.05;101475.63;5043550;28;20188;-71
2021/06/03 01:51:00;;;;;;;9.23;5.70;;;;;;;10.97;79.72;101475.69;5039849;28;20226;-71
2021/06/03 01:53:28;;;;;;;5.93;5.20;;;;;;;10.98;83.25;101459.16;5045327;28;20207;-71
2021/06/03 01:55:55;;;;;;;7.90;5.17;;;;;;;10.97;84.23;101460.91;5038864;28;20224;-71
2021/06/03 01:58:22;;;;;;;6.73;5.10;;;;;;;10.86;82.58;101464.56;5041309;28;20215;-71
2021/06/03 02:00:52;;;;;;;7.83;5.10;;;;;;;10.85;84.80;101466.28;5037546;28;20923;-71
2021/06/03 02:03:21;;;;;;;7.23;5.40;;;;;;;10.74;83.08;101469.03;5037611;28;20214;-71
2021/06/03 02:05:48;;;;;;;6.43;5.37;;;;;;;10.73;84.65;101464.72;5023260;28;20251;-71
2021/06/03 02:08:14;;;;;;;7.83;5.33;;;;;;;10.60;82.68;101468.38;5034023;28;20267;-71
2021/06/03 02:10:59;;;;;;;6.53;5.10;;;;;;;10.59;84.54;101477.09;5036771;28;20210;-71
2021/06/03 02:13:32;;;;;;;6.27;5.07;;;;;;;10.58;86.31;101465.78;5043990;28;20226;-71
2021/06/03 02:16:04;;;;;;;6.60;5.50;;;;;;;10.58;87.62;101468.38;5043223;28;20267;-71
2021/06/03 02:18:44;;;;;;;6.43;5.13;;;;;;;10.53;87.76;101461.50;5039980;28;20306;-71
2021/06/03 02:21:11;;;;;;;7.53;5.50;;;;;;;10.46;86.84;101467.69;5043986;28;20202;-71
2021/06/03 02:23:38;;;;;;;6.03;5.37;;;;;;;10.40;86.95;101466.88;5047974;28;20290;-71
2021/06/03 02:26:05;;;;;;;6.37;5.07;;;;;;;10.39;86.16;101475.56;5031320;28;20649;-71
2021/06/03 02:28:36;;;;;;;8.73;5.57;;;;;;;10.37;84.35;101474.72;5043462;28;20202;-71
2021/06/03 02:31:03;;;;;;;5.87;5.27;;;;;;;10.40;82.75;101484.28;5033558;28;20592;-71
2021/06/03 02:33:31;;;;;;;7.27;4.80;;;;;;;10.46;81.94;101478.97;5041677;28;20275;-71
2021/06/03 02:35:59;;;;;;;6.90;5.33;;;;;;;10.50;81.60;101480.69;5038322;28;20246;-71
2021/06/03 02:38:27;;;;;;;9.17;5.70;;;;;;;10.56;81.11;101477.97;5042815;28;20226;-71
2021/06/03 02:40:59;;;;;;;6.33;4.97;;;;;;;10.58;82.16;101475.34;5045204;28;20205;-71
2021/06/03 02:43:25;;;;;;;8.07;5.97;;;;;;;10.56;81.46;101475.38;5039912;28;20264;-71
2021/06/03 02:45:52;;;;;;;7.53;5.13;;;;;;;10.57;81.03;101479.72;5036537;28;20218;-71
2021/06/03 02:48:20;;;;;;;6.80;5.57;;;;;;;10.57;80.66;101479.72;5043290;28;20212;-71
2021/06/03 02:50:46;;;;;;;5.97;5.17;;;;;;;10.62;80.28;101490.06;5045100;28;20206;-71
2021/06/03 02:53:13;;;;;;;10.10;5.10;;;;;;;10.65;80.57;101481.38;5042385;28;20693;-71
2021/06/03 02:55:42;;;;;;;7.57;5.57;;;;;;;10.69;80.36;101486.50;5043303;28;20258;-71
2021/06/03 02:58:11;;;;;;;6.60;5.17;;;;;;;10.68;79.65;101489.16;5040500;28;20643;-71
2021/06/03 03:00:42;;;;;;;6.47;5.20;;;;;;;10.71;79.26;101495.19;5041636;28;20247;-71
2021/06/03 03:03:10;;;;;;;7.53;5.40;;;;;;;10.71;79.25;101489.97;5041098;28;20194;-71
2021/06/03 03:05:41;;;;;;;7.80;5.40;;;;;;;10.76;78.78;101489.91;5035032;28;20308;-71
2021/06/03 03:08:08;;;;;;;6.87;5.17;;;;;;;10.82;79.06;101482.00;5037915;28;20194;-71
2021/06/03 03:10:37;;;;;;;5.67;5.00;;;;;;;10.82;77.96;101491.56;5042046;28;20209;-71
2021/06/03 03:13:04;;;;;;;6.27;5.07;;;;;;;10.87;78.03;101497.56;5040619;28;20193;-71
2021/06/03 03:15:31;;;;;;;8.73;5.27;;;;;;;10.87;77.99;101497.56;5042023;28;20784;-71
2021/06/03 03:17:58;;;;;;;6.83;5.20;;;;;;;10.90;77.79;101502.75;5038459;28;20276;-71
2021/06/03 03:20:27;;;;;;;5.57;4.90;;;;;;;10.89;77.50;101509.72;5038734;28;20715;-71
2021/06/03 03:22:57;;;;;;;6.97;5.10;;;;;;;10.92;78.19;101501.00;5045546;28;20211;-71
2021/06/03 03:25:26;;;;;;;7.10;4.73;;;;;;;10.91;77.50;101507.97;5057679;28;20621;-71
2021/06/03 03:27:55;;;;;;;8.03;4.93;;;;;;;10.95;77.72;101500.94;5042227;28;20611;-71
2021/06/03 03:30:24;;;;;;;6.37;5.30;;;;;;;10.94;77.44;101505.31;5043466;28;20226;-71
2021/06/03 03:32:50;;;;;;;7.77;5.13;;;;;;;10.99;78.59;101507.84;5046670;28;20203;-71
2021/06/03 03:35:17;;;;;;;5.77;4.73;;;;;;;10.97;77.46;101507.88;5044194;28;20214;-71
2021/06/03 03:37:45;;;;;;;7.07;5.20;;;;;;;11.01;77.01;101506.09;5049361;28;20223;-71
2021/06/03 03:40:16;;;;;;;7.10;5.43;;;;;;;11.05;77.36;101513.00;5039746;28;20651;-71
2021/06/03 03:42:43;;;;;;;5.70;4.97;;;;;;;11.06;78.39;101503.41;5039910;28;20195;-71
2021/06/03 03:45:12;;;;;;;6.03;4.80;;;;;;;11.06;77.71;101509.47;5051026;28;20227;-71
2021/06/03 03:47:39;;;;;;;8.60;4.80;;;;;;;11.08;77.97;101510.34;5037556;28;20217;-71
2021/06/03 03:50:08;;;;;;;7.83;5.10;;;;;;;11.10;77.29;101505.97;5040190;28;20226;-71
2021/06/03 03:52:34;;;;;;;5.93;5.23;;;;;;;11.11;77.55;101512.91;5040279;28;20206;-71
2021/06/03 03:55:03;;;;;;;7.17;4.90;;;;;;;11.16;76.85;101511.09;5042932;28;20222;-71
2021/06/03 03:57:31;;;;;;;8.17;5.33;;;;;;;11.27;76.93;101517.91;5038235;28;20196;-71
2021/06/03 04:00:03;;;;;;;5.93;4.87;;;;;;;11.31;76.51;101524.78;5043773;28;20188;-71
2021/06/03 04:02:30;;;;;;;6.90;4.60;;;;;;;11.35;76.70;101522.13;5041833;28;20198;-71
2021/06/03 04:04:56;;;;;;;5.50;4.87;;;;;;;11.42;75.56;101525.50;5039546;28;20317;-71
2021/06/03 04:07:23;;;;;;;7.93;5.10;;;;;;;11.55;75.81;101531.41;5047314;28;20222;-71
2021/06/03 04:09:49;;;;;;;6.77;5.23;;;;;;;11.60;76.19;101529.56;5047285;28;20238;-71
2021/06/03 04:12:15;;;;;;;6.10;5.17;;;;;;;11.72;74.87;101533.75;5046811;28;20203;-71
2021/06/03 04:14:45;;;;;;;8.67;5.23;;;;;;;11.84;74.17;101538.78;5049125;28;20277;-71
2021/06/03 04:17:11;;;;;;;5.60;5.00;;;;;;;11.95;74.11;101543.00;5038349;28;20270;-71
2021/06/03 04:19:37;;;;;;;6.87;5.20;;;;;;;12.06;73.69;101538.41;5048214;28;20706;-71
2021/06/03 04:22:04;;;;;;;7.90;4.47;;;;;;;12.18;73.46;101542.56;5041542;28;20683;-71
2021/06/03 04:24:32;;;;;;;8.87;5.40;;;;;;;12.25;72.74;101549.41;5045270;28;20199;-71
2021/06/03 04:26:58;;;;;;;5.77;4.90;;;;;;;12.36;73.24;101551.81;5041950;28;20283;-71
2021/06/03 04:29:25;;;;;;;6.73;4.70;;;;;;;12.46;72.11;101538.53;5043023;28;20231;-71
2021/06/03 04:31:52;;;;;;;8.00;4.67;;;;;;;12.54;72.81;101545.38;5049517;28;20198;-71
2021/06/03 04:34:18;;;;;;;7.20;4.90;;;;;;;12.63;71.81;101546.06;5043788;28;20209;-71
2021/06/03 04:36:44;;;;;;;6.80;5.00;;;;;;;12.71;71.72;101552.91;5041550;28;20237;-71
2021/06/03 04:39:10;;;;;;;6.57;4.87;;;;;;;12.78;70.28;101555.34;5049530;28;20280;-71
2021/06/03 04:41:36;;;;;;;6.13;5.20;;;;;;;12.91;71.31;101552.47;5038060;28;20227;-71
2021/06/03 04:44:02;;;;;;;8.50;5.17;;;;;;;12.99;70.36;101551.41;5040681;28;20303;-71
2021/06/03 04:46:28;;;;;;;10.20;5.10;;;;;;;13.10;69.91;101552.94;5033831;28;20273;-71
2021/06/03 04:48:57;;;;;;;6.97;4.80;;;;;;;13.13;69.74;101556.34;5043467;28;20205;-71
2021/06/03 04:51:23;;;;;;;9.00;4.90;;;;;;;13.27;70.13;101556.06;5046462;28;20217;-71
2021/06/03 04:53:49;;;;;;;6.30;4.70;;;;;;;13.36;69.51;101565.50;5045464;28;20242;-71
2021/06/03 04:56:15;;;;;;;6.60;4.70;;;;;;;13.48;68.64;101567.84;5046759;28;20245;-71
2021/06/03 04:58:41;;;;;;;8.10;4.43;;;;;;;13.61;68.25;101577.13;5058810;28;20217;-71
2021/06/03 05:01:08;;;;;;;6.60;4.50;;;;;;;13.67;67.70;101573.50;5042238;28;20230;-71
2021/06/03 05:03:33;;;;;;;6.10;4.77;;;;;;;13.75;68.89;101579.41;5050522;28;20240;-71
2021/06/03 05:06:01;;;;;;;6.10;4.77;;;;;;;13.76;68.03;101581.13;5044048;28;20642;-71
2021/06/03 05:08:27;;;;;;;7.90;4.77;;;;;;;13.83;67.79;101577.47;5038318;28;20941;-71
2021/06/03 05:10:53;;;;;;;7.57;4.90;;;;;;;13.96;67.14;101579.78;5045830;28;20207;-71
2021/06/03 05:13:19;;;;;;;6.17;4.50;;;;;;;14.07;68.35;101590.00;5054797;28;20602;-71
2021/06/03 05:15:45;;;;;;;8.83;4.70;;;;;;;14.19;67.16;101581.81;5043990;28;20292;-71
2021/06/03 05:18:11;;;;;;;6.43;4.90;;;;;;;14.32;67.25;101587.63;5043355;28;20689;-71
2021/06/03 05:20:39;;;;;;;6.40;4.20;;;;;;;14.43;66.50;101592.59;5044523;28;20196;-71
2021/06/03 05:23:06;;;;;;;7.30;4.80;;;;;;;14.52;66.04;101584.44;5039378;28;20242;-71
2021/06/03 05:25:34;;;;;;;7.70;4.60;;;;;;;14.60;65.60;101582.53;5036491;28;20227;-71
2021/06/03 05:28:01;;;;;;;5.97;4.93;;;;;;;14.63;66.74;101585.03;5044297;28;20789;-71
2021/06/03 05:30:28;;;;;;;7.93;5.30;;;;;;;14.71;65.52;101580.44;5046273;28;20196;-71
2021/06/03 05:32:54;;;;;;;6.47;4.73;;;;;;;14.85;66.22;101574.81;5048527;28;20203;-71
2021/06/03 05:35:22;;;;;;;5.23;4.50;;;;;;;14.98;65.46;101580.53;5046662;28;20211;-71
2021/06/03 05:37:49;;;;;;;7.23;5.00;;;;;;;15.10;66.24;101579.34;5043012;28;20203;-71
2021/06/03 05:40:19;;;;;;;6.80;4.63;;;;;;;15.18;66.53;101579.97;5047013;28;20203;-71
2021/06/03 05:42:46;;;;;;;8.13;4.57;;;;;;;15.28;65.64;101584.00;5038239;28;20196;-71
2021/06/03 05:45:13;;;;;;;5.77;4.53;;;;;;;15.36;65.40;101589.06;5045866;28;20283;-71
2021/06/03 05:47:40;;;;;;;6.27;4.90;;;;;;;15.51;64.41;101582.44;5039508;28;20204;-71
2021/06/03 05:50:09;;;;;;;7.53;4.50;;;;;;;15.64;65.45;101585.56;5047931;28;20272;-71
2021/06/03 05:52:36;;;;;;;5.77;4.40;;;;;;;15.76;63.12;101589.56;5034583;28;20199;-71
2021/06/03 05:55:03;;;;;;;5.47;4.33;;;;;;;15.74;62.70;101591.38;5042700;28;20215;-71
2021/06/03 05:57:30;;;;;;;6.17;4.30;;;;;;;15.76;62.64;101593.09;5045099;28;20677;-71
2021/06/03 05:59:56;;;;;;;6.03;4.30;;;;;;;15.96;62.31;101586.31;5043361;28;20220;-71
2021/06/03 06:02:29;;;;;;;6.90;4.53;;;;;;;15.98;61.86;101587.97;5041914;28;20330;-71
2021/06/03 06:07:39;;;;;;;7.23;4.50;;;;;;;16.36;61.58;101590.19;5011461;28;20698;-71
2021/06/03 06:10:06;;;;;;;7.00;4.93;;;;;;;16.41;60.96;101599.66;5040965;28;20723;-71
2021/06/03 06:12:34;;;;;;;8.77;4.83;;;;;;;16.53;61.02;101595.72;5037083;28;20204;-71
2021/06/03 06:15:00;;;;;;;6.33;4.40;;;;;;;16.64;60.26;101598.00;5047265;28;20251;-71
2021/06/03 06:17:25;;;;;;;5.43;4.63;;;;;;;16.78;59.82;101600.97;5042522;28;20281;-71
2021/06/03 06:19:51;;;;;;;5.70;4.40;;;;;;;16.91;59.99;101603.19;5039172;28;20213;-71
2021/06/03 06:22:17;;;;;;;8.17;4.40;;;;;;;17.08;59.01;101611.31;5041660;28;20229;-71
2021/06/03 06:24:45;;;;;;;7.37;4.17;;;;;;;17.13;60.85;101595.31;5038665;28;20537;-71
2021/06/03 06:27:11;;;;;;;9.27;4.60;;;;;;;17.33;61.78;101610.38;5042292;28;20200;-71
2021/06/03 06:29:38;;;;;;;6.17;4.40;;;;;;;17.42;59.76;101607.38;5035474;28;20188;-71
2021/06/03 06:32:05;;;;;;;7.47;4.60;;;;;;;17.52;57.87;101614.00;5044704;28;20300;-71
2021/06/03 06:34:31;;;;;;;5.60;4.03;;;;;;;17.68;58.83;101616.91;5041261;28;20211;-71
2021/06/03 06:36:57;;;;;;;9.03;4.20;;;;;;;17.85;57.00;101618.84;5027603;28;20210;-71
2021/06/03 06:39:23;;;;;;;7.33;4.03;;;;;;;17.95;55.32;101627.28;5036510;28;20758;-71
2021/06/03 06:41:49;;;;;;;4.97;4.07;;;;;;;18.11;56.35;101624.84;5041768;28;20912;-71
2021/06/03 06:44:15;;;;;;;9.27;3.87;;;;;;;18.30;57.23;101625.78;5039990;28;20199;-71
2021/06/03 06:46:42;;;;;;;5.23;3.70;;;;;;;18.47;57.09;101630.34;5044931;28;20242;-71
2021/06/03 06:49:08;;;;;;;5.00;3.53;;;;;;;18.60;55.00;101635.09;5042279;28;20238;-71
2021/06/03 06:51:34;;;;;;;5.93;3.60;;;;;;;18.78;55.08;101641.34;5041350;28;20201;-71
2021/06/03 06:54:01;;;;;;;5.03;3.83;;;;;;;18.87;56.48;101639.19;5040908;28;20192;-71
2021/06/03 06:56:27;;;;;;;4.13;3.33;;;;;;;19.09;52.73;101649.63;5036424;28;20223;-71
2021/06/03 06:58:53;;;;;;;5.27;3.77;;;;;;;19.10;54.63;101643.44;5041065;28;20211;-71
2021/06/03 07:01:19;;;;;;;4.57;3.83;;;;;;;19.23;52.30;101651.66;5039739;28;20207;-72
2021/06/03 07:03:46;;;;;;;5.47;3.77;;;;;;;19.32;55.35;101644.22;5035077;28;20288;-71
2021/06/03 07:06:12;;;;;;;4.97;3.77;;;;;;;19.48;54.36;101642.56;5045095;28;20708;-71
2021/06/03 07:08:38;;;;;;;6.33;3.50;;;;;;;19.61;53.02;101649.00;5051267;28;20199;-71
2021/06/03 07:11:04;;;;;;;4.67;3.40;;;;;;;19.69;52.31;101645.97;5044255;28;20218;-71
2021/06/03 07:13:30;;;;;;;5.27;3.70;;;;;;;19.87;53.60;101638.97;5045731;28;20199;-71
2021/06/03 07:15:56;;;;;;;6.33;3.40;;;;;;;19.95;52.59;101638.59;5040724;28;20301;-71
2021/06/03 07:18:22;;;;;;;3.80;3.17;;;;;;;20.09;53.11;101643.19;5044748;28;20827;-71
2021/06/03 07:20:49;;;;;;;4.90;3.90;;;;;;;20.18;49.57;101648.03;5044340;28;20279;-71
2021/06/03 07:23:15;;;;;;;6.80;3.80;;;;;;;20.32;49.64;101642.03;5046755;28;20225;-71
2021/06/03 07:25:41;;;;;;;5.93;3.70;;;;;;;20.29;48.50;101639.53;5037478;28;20223;-71
2021/06/03 07:28:08;;;;;;;6.53;3.30;;;;;;;20.40;48.36;101627.47;5053581;28;20210;-71
2021/06/03 07:30:35;;;;;;;3.77;3.17;;;;;;;20.52;50.14;101625.13;5041841;28;20203;-71
2021/06/03 07:33:02;;;;;;;4.07;3.20;;;;;;;20.65;49.54;101628.88;5043461;28;20206;-71
2021/06/03 07:35:29;;;;;;;4.53;3.23;;;;;;;20.72;46.96;101632.91;5044055;28;20219;-73
2021/06/03 07:37:57;;;;;;;4.43;2.93;;;;;;;20.86;49.31;101623.34;5044121;28;20746;-73
2021/06/03 07:40:27;;;;;;;6.93;3.60;;;;;;;20.90;50.39;101622.28;5045309;28;20253;-72
2021/06/03 07:42:53;;;;;;;5.43;3.20;;;;;;;20.87;50.64;101611.81;5044499;28;20205;-71
2021/06/03 07:45:23;;;;;;;5.70;3.33;;;;;;;21.01;48.61;101619.88;5040207;28;20235;-73
2021/06/03 07:47:50;;;;;;;3.23;2.90;;;;;;;21.15;48.93;101621.78;5041637;28;20199;-71
2021/06/03 07:50:16;;;;;;;4.53;3.20;;;;;;;21.29;47.82;101613.91;5049277;28;20202;-72
2021/06/03 07:52:43;;;;;;;4.13;2.97;;;;;;;21.33;46.72;101617.25;5038832;28;20211;-71
2021/06/03 07:55:13;;;;;;;4.87;3.30;;;;;;;21.44;45.48;101622.81;5045158;28;20305;-72
2021/06/03 07:57:41;;;;;;;2.97;2.67;;;;;;;21.47;45.24;101621.81;5040777;28;20202;-71
2021/06/03 08:00:10;;;;;;;4.30;2.80;;;;;;;21.52;45.18;101628.56;5038985;28;20219;-71
2021/06/03 08:02:39;;;;;;;3.87;2.83;;;;;;;21.58;43.93;101624.69;5042897;28;20906;-72
2021/06/03 08:05:07;;;;;;;3.17;2.83;;;;;;;21.58;45.91;101622.03;5040698;28;20251;-72
2021/06/03 08:07:33;;;;;;;4.17;2.70;;;;;;;21.70;43.57;101626.66;5048296;28;20202;-71
2021/06/03 08:09:59;;;;;;;3.10;2.80;;;;;;;21.77;42.50;101623.66;5037493;28;20179;-72
2021/06/03 08:12:26;;;;;;;3.87;2.93;;;;;;;21.88;42.99;101627.41;5048556;28;20544;-72
2021/06/03 08:14:52;;;;;;;3.60;2.83;;;;;;;21.93;42.60;101625.34;5044686;28;20230;-71
2021/06/03 08:17:18;;;;;;;4.20;2.47;;;;;;;21.88;42.21;101637.16;5048108;28;20302;-72
2021/06/03 08:19:44;;;;;;;4.50;2.63;;;;;;;22.04;43.53;101630.03;5046807;28;20294;-72
2021/06/03 08:22:10;;;;;;;4.53;2.93;;;;;;;22.11;43.71;101628.72;5048309;28;20198;-72
2021/06/03 08:24:36;;;;;;;3.30;2.90;;;;;;;22.22;43.83;101632.56;5039371;28;20588;-71
2021/06/03 08:27:03;;;;;;;3.73;2.90;;;;;;;22.22;44.44;101635.22;5043468;28;20223;-72
2021/06/03 08:29:31;;;;;;;2.90;2.57;;;;;;;22.30;44.02;101631.19;5042305;28;20226;-71
2021/06/03 08:31:57;;;;;;;3.83;2.80;;;;;;;22.39;44.82;101631.56;5038721;28;20194;-71
2021/06/03 08:34:23;;;;;;;3.17;2.63;;;;;;;22.51;43.07;101636.13;5042423;28;20191;-71
2021/06/03 08:36:49;;;;;;;5.33;2.60;;;;;;;22.57;41.80;101634.94;5042719;28;20272;-70
2021/06/03 08:39:15;;;;;;;3.03;2.57;;;;;;;22.52;41.54;101637.84;5045773;28;20207;-71
2021/06/03 08:41:45;;;;;;;4.63;2.83;;;;;;;22.63;43.60;101635.38;5042483;28;20195;-71
2021/06/03 08:44:12;;;;;;;3.80;2.57;;;;;;;22.88;44.40;101636.53;5041546;28;20207;-71
2021/06/03 08:46:40;;;;;;;3.40;2.60;;;;;;;23.00;41.20;101641.09;5046959;28;20233;-71
2021/06/03 08:49:07;;;;;;;3.10;2.80;;;;;;;22.98;40.73;101640.31;5042199;28;20188;-70
2021/06/03 08:51:34;;;;;;;3.50;2.63;;;;;;;23.09;39.98;101639.69;5043328;28;20196;-72
2021/06/03 08:54:01;;;;;;;3.53;2.53;;;;;;;23.04;38.32;101633.75;5043868;28;20564;-71
2021/06/03 08:56:28;;;;;;;2.80;2.50;;;;;;;23.14;39.68;101640.25;5044663;28;20805;-72
2021/06/03 08:58:56;;;;;;;4.40;2.80;;;;;;;23.28;41.15;101628.75;5044827;28;20284;-71
2021/06/03 09:01:23;;;;;;;3.80;2.53;;;;;;;23.28;39.12;101641.19;5042863;28;20212;-70
2021/06/03 09:03:50;;;;;;;3.47;2.60;;;;;;;23.25;40.54;101627.13;5048013;28;20203;-72
2021/06/03 09:06:18;;;;;;;2.47;2.20;;;;;;;23.38;39.28;101624.53;5039766;28;20220;-71
2021/06/03 09:08:49;;;;;;;3.28;2.70;;;;;;;23.46;39.42;101624.03;5044373;28;20210;-72
2021/06/03 09:11:19;;;;;;;4.60;2.70;;;;;;;23.50;38.78;101628.22;5044036;28;20205;-72
2021/06/03 09:13:47;;;;;;;4.57;2.70;;;;;;;23.62;38.59;101621.22;5041402;28;20269;-71
2021/06/03 09:16:21;;;;;;;2.95;2.60;;;;;;;23.48;37.99;101622.13;5058106;28;20212;-72
2021/06/03 09:18:49;;;;;;;2.30;2.00;;;;;;;23.49;38.43;101620.34;5040022;28;20769;-70
2021/06/03 09:21:19;;;;;;;3.42;2.65;;;;;;;23.52;37.57;101628.13;5040218;28;20230;-72
2021/06/03 09:23:47;;;;;;;3.00;2.67;;;;;;;23.66;38.58;101624.53;5044246;28;20208;-72
2021/06/03 09:26:16;;;;;;;2.88;2.47;;;;;;;23.89;41.24;101615.09;5042685;28;20589;-71
2021/06/03 09:28:46;;;;;;;2.70;2.40;;;;;;;23.81;38.80;101618.22;5044705;28;20206;-72
2021/06/03 09:31:18;;;;;;;3.55;2.47;;;;;;;23.85;39.28;101614.44;5041001;28;20892;-71
2021/06/03 09:33:52;;;;;;;3.15;2.65;;;;;;;23.76;39.39;101615.00;5043859;28;20548;-72
2021/06/03 09:36:31;;;;;;;3.72;2.42;;;;;;;23.83;40.35;101612.81;5041136;28;20297;-71
2021/06/03 09:39:08;;;;;;;3.67;2.50;;;;;;;23.90;38.01;101616.75;5042950;28;20219;-70
2021/06/03 09:41:36;;;;;;;3.33;2.70;;;;;;;23.88;38.06;101614.19;5044105;28;20207;-71
2021/06/03 09:44:06;;;;;;;5.65;2.67;;;;;;;23.97;39.39;101615.41;5037515;28;20242;-72
2021/06/03 09:46:38;;;;;;;5.30;2.78;;;;;;;24.23;42.00;101610.13;5041658;28;20704;-70
2021/06/03 09:49:05;;;;;;;3.03;2.70;;;;;;;24.42;39.06;101609.72;5042307;28;20203;-72
2021/06/03 09:51:37;;;;;;;2.90;2.35;;;;;;;24.47;38.19;101620.91;5045242;28;20206;-72
2021/06/03 09:54:06;;;;;;;3.33;2.42;;;;;;;24.37;38.24;101612.69;5042053;28;20203;-71
2021/06/03 09:56:34;;;;;;;2.70;2.50;;;;;;;24.44;40.65;101607.78;5040239;28;20223;-72
2021/06/03 09:59:02;;;;;;;4.18;2.70;;;;;;;24.56;40.64;101612.31;5038330;28;20207;-71
2021/06/03 10:01:49;;;;;;;3.83;2.78;;;;;;;24.61;40.55;101602.19;5035813;28;20195;-72
2021/06/03 10:04:18;;;;;;;3.40;2.60;;;;;;;24.47;38.44;101602.25;5036233;28;20199;-72
2021/06/03 10:07:16;;;;;;;2.92;2.63;;;;;;;24.65;42.52;101589.47;5044490;28;20222;-72
2021/06/03 10:09:53;;;;;;;3.20;2.42;;;;;;;24.60;37.62;101607.63;5024431;28;20589;-72
2021/06/03 10:12:28;;;;;;;2.97;2.65;;;;;;;24.66;36.82;101604.50;5038694;28;20667;-72
2021/06/03 10:14:56;;;;;;;3.20;2.90;;;;;;;24.54;37.05;101608.91;5046631;28;20302;-72
2021/06/03 10:17:26;;;;;;;4.13;2.90;;;;;;;24.64;39.42;101598.44;5042893;28;20268;-72
2021/06/03 10:19:54;;;;;;;2.60;2.40;;;;;;;24.83;37.69;101597.97;5040552;28;20227;-72
2021/06/03 10:22:23;;;;;;;3.22;2.60;;;;;;;24.74;38.48;101596.81;5041188;28;20211;-71
2021/06/03 10:24:52;;;;;;;2.67;2.47;;;;;;;24.76;36.45;101597.56;5045437;28;20231;-72
2021/06/03 10:27:21;;;;;;;2.90;2.30;;;;;;;24.83;37.44;101592.66;5042021;28;20600;-72
2021/06/03 10:29:48;;;;;;;4.97;2.55;;;;;;;24.93;38.96;101591.03;5040816;28;20231;-72
2021/06/03 10:32:15;;;;;;;2.75;2.42;;;;;;;25.11;39.96;101587.03;5037846;28;20207;-72
2021/06/03 10:34:43;;;;;;;3.40;2.92;;;;;;;25.17;41.35;101579.53;5034790;28;20203;-71
2021/06/03 10:37:11;;;;;;;3.70;2.75;;;;;;;25.19;36.39;101594.50;5042822;28;20277;-73
2021/06/03 10:39:38;;;;;;;4.80;3.08;;;;;;;25.22;36.47;101586.25;5044206;28;20215;-72
2021/06/03 10:42:05;;;;;;;5.18;3.15;;;;;;;25.25;37.13;101582.53;5037303;28;20200;-71
2021/06/03 10:44:31;;;;;;;3.33;2.70;;;;;;;25.27;36.76;101583.28;5037557;28;20249;-72
2021/06/03 10:46:58;;;;;;;2.78;2.58;;;;;;;25.35;38.48;101583.56;5041870;28;20195;-71
2021/06/03 10:49:28;;;;;;;4.18;2.75;;;;;;;25.47;40.54;101580.00;5040721;28;20187;-70
2021/06/03 10:51:54;;;;;;;3.10;2.72;;;;;;;25.46;39.61;101577.44;5042228;28;20199;-70
2021/06/03 10:54:46;;;;;;;4.28;2.88;;;;;;;25.48;39.83;101579.00;5041315;28;20203;-72
2021/06/03 10:57:14;;;;;;;3.35;2.75;;;;;;;25.56;37.19;101570.44;5041221;28;20187;-72
2021/06/03 10:59:41;;;;;;;2.95;2.65;;;;;;;25.55;39.04;101567.91;5038945;28;20233;-72
2021/06/03 11:02:08;;;;;;;4.45;2.80;;;;;;;25.66;38.11;101568.81;5043594;28;20305;-72
2021/06/03 11:04:35;;;;;;;2.88;2.45;;;;;;;25.49;35.94;101577.22;5040439;28;20215;-72
2021/06/03 11:07:03;;;;;;;3.70;2.72;;;;;;;25.37;36.04;101567.44;5039592;28;20194;-72
2021/06/03 11:09:31;;;;;;;3.10;2.80;;;;;;;25.44;37.92;101571.38;5039898;28;20680;-71
2021/06/03 11:12:14;;;;;;;3.95;2.97;;;;;;;25.64;38.92;101564.53;5045270;28;20914;-70
2021/06/03 11:15:07;;;;;;;3.00;2.65;;;;;;;25.67;37.61;101569.66;5042396;28;20668;-72
2021/06/03 11:17:54;;;;;;;3.63;2.72;;;;;;;25.80;37.47;101559.72;5041361;28;20674;-73
2021/06/03 11:20:42;;;;;;;4.70;3.17;;;;;;;25.88;39.06;101560.00;5044352;28;20217;-72
2021/06/03 11:23:45;;;;;;;3.03;2.60;;;;;;;26.07;36.08;101561.31;5040705;28;20245;-72
2021/06/03 11:26:51;;;;;;;3.35;2.38;;;;;;;25.96;36.77;101556.78;5031203;28;20232;-71
2021/06/03 11:29:21;;;;;;;3.55;2.60;;;;;;;25.51;35.06;101568.13;5039957;28;20187;-72
2021/06/03 11:31:50;;;;;;;2.70;2.50;;;;;;;25.56;38.82;101553.56;5040735;28;20195;-71
2021/06/03 11:34:19;;;;;;;3.83;2.60;;;;;;;25.72;35.49;101569.31;5035419;28;20233;-71